HomeShort term forecast

Short term forecast

Graphical weather forecast for the next 48 hours for Montreal:
Short term forecast
This weather forecast is automatically refreshed every 3 hours.

Hourly Experimental Forecast for the next 48 hours ®

Overall summary: Mostly cloudy throughout the day.

 Date & Hour   Temp   Feel   Baro   Hum   Speed & Bearing   Wind Gust   Precip.%   Precip.   Visibility   Cloud cover   Conditions 
 22/10/2021 - 13:00  9.3°C  6.3°C  1010.8 hPa  76%  22.2 km/h   31.0 km/h  0%  --  16.1km  63%  Mostly Cloudy 
 22/10/2021 - 14:00  8.7°C  5.6°C  1011.3 hPa  75%  21.5 km/h   30.8 km/h  0%  --  16.1km  84%  Mostly Cloudy 
 22/10/2021 - 15:00  8.4°C  5.5°C  1012.0 hPa  72%  19.6 km/h   28.0 km/h  0%  --  16.1km  78%  Mostly Cloudy 
 22/10/2021 - 16:00  8.2°C  5.4°C  1012.7 hPa  69%  18.1 km/h   25.9 km/h  0%  --  16.1km  82%  Mostly Cloudy 
 22/10/2021 - 17:00  7.8°C  5.1°C  1013.5 hPa  68%  16.6 km/h   24.4 km/h  0%  --  16.1km  77%  Mostly Cloudy 
 22/10/2021 - 18:00  7.2°C  4.5°C  1014.1 hPa  69%  15.3 km/h   24.5 km/h  0%  --  16.1km  73%  Mostly Cloudy 
 22/10/2021 - 19:00  6.6°C  3.9°C  1015.0 hPa  71%  14.2 km/h   25.4 km/h  0%  --  16.1km  73%  Mostly Cloudy 
 22/10/2021 - 20:00  6.6°C  4.0°C  1015.6 hPa  74%  13.0 km/h   25.6 km/h  0%  --  16.1km  65%  Mostly Cloudy 
 22/10/2021 - 21:00  6.1°C  3.7°C  1016.1 hPa  76%  11.4 km/h   23.3 km/h  0%  --  16.1km  56%  Partly Cloudy 
 22/10/2021 - 22:00  5.6°C  3.4°C  1016.3 hPa  78%  9.7 km/h   19.8 km/h  0%  --  16.1km  55%  Partly Cloudy 
 22/10/2021 - 23:00  5.2°C  3.3°C  1016.4 hPa  79%  8.1 km/h   16.3 km/h  0%  --  16.1km  42%  Partly Cloudy 
 23/10/2021 - 00:00  4.8°C  3.2°C  1016.3 hPa  80%  7.3 km/h   14.2 km/h  0%  --  16.1km  64%  Mostly Cloudy 
 23/10/2021 - 01:00  5.0°C  3.5°C  1016.2 hPa  79%  6.8 km/h   9.9 km/h  0%  --  16.1km  80%  Mostly Cloudy 
 23/10/2021 - 02:00  5.0°C  3.3°C  1016.1 hPa  80%  7.1 km/h   10.8 km/h  0%  --  16.1km  84%  Mostly Cloudy 
 23/10/2021 - 03:00  4.8°C  3.3°C  1015.9 hPa  81%  6.6 km/h   10.6 km/h  0%  --  16.1km  90%  Overcast 
 23/10/2021 - 04:00  4.5°C  3.1°C  1015.8 hPa  82%  6.2 km/h   10.8 km/h  0%  --  16.1km  90%  Overcast 
 23/10/2021 - 05:00  4.2°C  2.9°C  1015.9 hPa  83%  5.5 km/h   10.3 km/h  0%  --  16.1km  91%  Overcast 
 23/10/2021 - 06:00  3.8°C  3.8°C  1016.1 hPa  83%  4.7 km/h   8.7 km/h  0%  --  16.1km  93%  Overcast 
 23/10/2021 - 07:00  3.6°C  3.6°C  1016.4 hPa  83%  4.0 km/h   6.7 km/h  0%  --  16.1km  96%  Overcast 
 23/10/2021 - 08:00  3.3°C  3.3°C  1016.8 hPa  84%  4.5 km/h   7.4 km/h  0%  --  16.1km  94%  Overcast 
 23/10/2021 - 09:00  3.7°C  3.7°C  1017.1 hPa  81%  4.8 km/h   7.3 km/h  0%  --  16.1km  96%  Overcast 
 23/10/2021 - 10:00  4.5°C  3.3°C  1017.2 hPa  77%  5.5 km/h   8.0 km/h  0%  --  16.1km  98%  Overcast 
 23/10/2021 - 11:00  5.3°C  4.1°C  1017.2 hPa  72%  6.1 km/h   9.1 km/h  0%  --  16.1km  98%  Overcast 
 23/10/2021 - 12:00  6.1°C  4.8°C  1016.7 hPa  69%  6.6 km/h   9.4 km/h  0%  --  16.1km  81%  Mostly Cloudy 
 23/10/2021 - 13:00  6.8°C  5.5°C  1016.1 hPa  65%  7.2 km/h   10.1 km/h  0%  --  16.1km  66%  Mostly Cloudy 
 23/10/2021 - 14:00  7.5°C  6.0°C  1015.4 hPa  60%  8.3 km/h   12.1 km/h  0%  --  16.1km  74%  Mostly Cloudy 
 23/10/2021 - 15:00  8.0°C  6.6°C  1015.1 hPa  56%  8.7 km/h   12.5 km/h  0%  --  16.1km  72%  Mostly Cloudy 
 23/10/2021 - 16:00  8.4°C  6.8°C  1015.0 hPa  55%  9.3 km/h   13.3 km/h  0%  --  16.1km  73%  Mostly Cloudy 
 23/10/2021 - 17:00  8.2°C  6.5°C  1015.0 hPa  57%  9.7 km/h   14.3 km/h  0%  --  16.1km  70%  Mostly Cloudy 
 23/10/2021 - 18:00  7.7°C  6.0°C  1015.2 hPa  61%  9.5 km/h   16.3 km/h  0%  --  16.1km  75%  Mostly Cloudy 
 23/10/2021 - 19:00  7.0°C  5.2°C  1015.5 hPa  65%  9.8 km/h   18.4 km/h  0%  --  16.1km  82%  Mostly Cloudy 
 23/10/2021 - 20:00  6.3°C  4.3°C  1016.0 hPa  69%  9.4 km/h   18.8 km/h  0%  --  16.1km  87%  Mostly Cloudy 
 23/10/2021 - 21:00  5.7°C  3.7°C  1016.1 hPa  72%  9.3 km/h   18.4 km/h  0%  --  16.1km  79%  Mostly Cloudy 
 23/10/2021 - 22:00  5.3°C  3.4°C  1016.2 hPa  75%  8.8 km/h   16.9 km/h  0%  --  16.1km  56%  Partly Cloudy 
 23/10/2021 - 23:00  4.9°C  3.0°C  1016.3 hPa  78%  8.3 km/h   15.7 km/h  0%  --  16.1km  54%  Partly Cloudy 
 24/10/2021 - 00:00  4.5°C  2.7°C  1016.3 hPa  80%  7.6 km/h   13.5 km/h  0%  --  16.1km  51%  Partly Cloudy 
 24/10/2021 - 01:00  4.2°C  2.4°C  1016.3 hPa  82%  7.3 km/h   12.7 km/h  0%  --  16.1km  48%  Partly Cloudy 
 24/10/2021 - 02:00  3.3°C  1.1°C  1016.4 hPa  84%  8.1 km/h   18.9 km/h  0%  --  16.1km  43%  Partly Cloudy 
 24/10/2021 - 03:00  2.7°C  0.5°C  1016.8 hPa  87%  7.7 km/h   17.9 km/h  0%  --  16.1km  40%  Partly Cloudy 
 24/10/2021 - 04:00  2.2°C  0.0°C  1017.3 hPa  90%  7.6 km/h   17.4 km/h  4%  0.02 mm/h  16.1km  52%  Partly Cloudy 
 24/10/2021 - 05:00  1.9°C  -0.3°C  1017.4 hPa  92%  7.3 km/h   16.4 km/h  3%  0.01 mm/h  16.1km  60%  Mostly Cloudy 
 24/10/2021 - 06:00  1.8°C  -0.4°C  1017.7 hPa  91%  7.2 km/h   16.6 km/h  3%  0.01 mm/h  16.1km  67%  Mostly Cloudy 
 24/10/2021 - 07:00  2.1°C  -0.2°C  1018.0 hPa  91%  7.5 km/h   18.5 km/h  3%  0.01 mm/h  16.1km  71%  Mostly Cloudy 
 24/10/2021 - 08:00  2.8°C  0.5°C  1018.4 hPa  88%  8.1 km/h   18.3 km/h  0%  --  16.1km  74%  Mostly Cloudy 
 24/10/2021 - 09:00  3.6°C  1.3°C  1018.9 hPa  87%  8.6 km/h   18.8 km/h  0%  --  16.1km  78%  Mostly Cloudy 
 24/10/2021 - 10:00  4.8°C  2.6°C  1019.1 hPa  84%  9.0 km/h   18.1 km/h  5%  0.03 mm/h  16.1km  74%  Mostly Cloudy 
 24/10/2021 - 11:00  5.9°C  3.9°C  1019.1 hPa  81%  9.3 km/h   17.7 km/h  6%  0.05 mm/h  15.2km  66%  Mostly Cloudy 
 24/10/2021 - 12:00  6.7°C  4.8°C  1019.0 hPa  78%  9.5 km/h   17.4 km/h  5%  0.04 mm/h  16.1km  61%  Mostly Cloudy 

 

Past weather and reports

Past weatherFind in this section the past weather conditions, weather archive, graphics, reports and statistics.

Current conditions

Current weather condition for MontrealAll you need to know about the current weather conditions for Montreal. Weather data is updated every 10 minutes.

Weather forecast

Current Montreal weatherSince 2004, celinium.com website has provided accurate weather forecast for Montreal's island.